createdAt,value
2022-11-27T00:01:31.634Z,77.63
2022-11-27T00:03:58.890Z,77.72
2022-11-27T00:06:27.503Z,77.70
2022-11-27T00:08:59.808Z,77.68
2022-11-27T00:11:28.666Z,77.60
2022-11-27T00:13:56.052Z,77.62
2022-11-27T00:16:24.342Z,77.45
2022-11-27T00:18:51.418Z,77.39
2022-11-27T00:21:24.243Z,77.45
2022-11-27T00:23:52.719Z,77.34
2022-11-27T00:26:20.432Z,77.75
2022-11-27T00:28:47.466Z,77.68
2022-11-27T00:31:21.566Z,77.36
2022-11-27T00:33:48.985Z,77.35
2022-11-27T00:36:16.210Z,77.50
2022-11-27T00:38:43.595Z,77.63
2022-11-27T00:41:21.483Z,77.61
2022-11-27T00:43:48.883Z,77.37
2022-11-27T00:46:17.716Z,77.58
2022-11-27T00:48:45.675Z,77.71
2022-11-27T00:51:15.529Z,77.74
2022-11-27T00:53:43.284Z,77.48
2022-11-27T00:56:16.990Z,77.69
2022-11-27T00:58:44.169Z,77.50
2022-11-27T01:01:27.004Z,77.44
2022-11-27T01:03:56.059Z,78.13
2022-11-27T01:06:23.204Z,77.67
2022-11-27T01:08:50.425Z,77.62
2022-11-27T01:11:21.041Z,77.75
2022-11-27T01:13:48.770Z,77.60
2022-11-27T01:16:19.137Z,77.78
2022-11-27T01:18:47.827Z,77.62
2022-11-27T01:21:18.024Z,77.67
2022-11-27T01:23:45.692Z,77.12
2022-11-27T01:26:13.501Z,77.63
2022-11-27T01:28:40.972Z,77.57
2022-11-27T01:31:16.096Z,77.66
2022-11-27T01:33:44.210Z,77.48
2022-11-27T01:36:13.101Z,77.64
2022-11-27T01:38:40.457Z,77.62
2022-11-27T01:41:13.317Z,77.90
2022-11-27T01:44:04.021Z,77.67
2022-11-27T01:46:34.765Z,77.76
2022-11-27T01:49:11.036Z,77.65
2022-11-27T01:51:48.731Z,77.43
2022-11-27T01:54:16.970Z,77.45
2022-11-27T01:56:48.329Z,77.40
2022-11-27T01:59:17.879Z,77.57
2022-11-27T02:01:44.885Z,77.55
2022-11-27T02:04:12.247Z,77.57
2022-11-27T02:06:39.583Z,77.69
2022-11-27T02:09:06.773Z,77.37
2022-11-27T02:11:53.293Z,77.25
2022-11-27T02:14:31.803Z,77.55
2022-11-27T02:17:29.541Z,77.38
2022-11-27T02:20:02.901Z,77.40
2022-11-27T02:22:57.794Z,77.39
2022-11-27T02:25:48.984Z,77.34
2022-11-27T02:28:24.843Z,77.33
2022-11-27T02:31:03.600Z,77.23
2022-11-27T02:33:34.428Z,77.17
2022-11-27T02:36:11.394Z,77.54
2022-11-27T02:38:46.739Z,77.59
2022-11-27T02:41:32.957Z,77.31
2022-11-27T02:44:00.801Z,77.40
2022-11-27T02:46:28.870Z,77.33
2022-11-27T02:49:04.797Z,77.38
2022-11-27T02:51:39.376Z,77.22
2022-11-27T02:54:10.898Z,77.46
2022-11-27T02:56:39.537Z,77.33
2022-11-27T02:59:11.304Z,77.67
2022-11-27T03:01:44.531Z,77.36
2022-11-27T03:04:17.117Z,77.82
2022-11-27T03:06:48.829Z,77.66
2022-11-27T03:09:25.122Z,77.28
2022-11-27T03:11:52.508Z,77.39
2022-11-27T03:14:24.291Z,77.53
2022-11-27T03:16:51.130Z,77.41
2022-11-27T03:19:33.158Z,77.33
2022-11-27T03:22:03.473Z,77.32
2022-11-27T03:24:32.534Z,77.42
2022-11-27T03:27:00.201Z,77.61
2022-11-27T03:29:42.732Z,77.39
2022-11-27T03:32:10.021Z,77.37
2022-11-27T03:34:37.349Z,77.43
2022-11-27T03:37:04.555Z,77.07
2022-11-27T03:39:32.621Z,77.20
2022-11-27T03:42:16.921Z,77.58
2022-11-27T03:44:53.071Z,77.34
2022-11-27T03:47:35.386Z,77.45
2022-11-27T03:50:30.649Z,77.45
2022-11-27T03:53:16.811Z,77.32
2022-11-27T03:56:08.371Z,77.52
2022-11-27T03:58:42.535Z,77.09
2022-11-27T04:01:15.764Z,77.55
2022-11-27T04:03:43.184Z,77.44
2022-11-27T04:06:11.257Z,77.27
2022-11-27T04:08:38.927Z,77.42
2022-11-27T04:11:06.422Z,77.39
2022-11-27T04:13:36.650Z,77.36
2022-11-27T04:16:04.065Z,77.30
2022-11-27T04:18:31.163Z,77.25
2022-11-27T04:20:58.214Z,77.50
2022-11-27T04:23:25.173Z,77.37
2022-11-27T04:25:52.743Z,77.36
2022-11-27T04:28:19.791Z,77.38
2022-11-27T04:30:52.055Z,77.23
2022-11-27T04:33:19.266Z,77.12
2022-11-27T04:35:46.168Z,77.07
2022-11-27T04:38:13.907Z,77.22
2022-11-27T04:40:41.186Z,77.25
2022-11-27T04:43:08.101Z,77.27
2022-11-27T04:45:35.058Z,77.20
2022-11-27T04:48:02.700Z,77.19
2022-11-27T04:50:29.994Z,77.31
2022-11-27T04:52:57.285Z,77.16
2022-11-27T04:55:24.315Z,77.29
2022-11-27T04:57:51.254Z,77.25
2022-11-27T05:00:18.850Z,76.91
2022-11-27T05:02:46.043Z,77.15
2022-11-27T05:05:13.114Z,76.95
2022-11-27T05:07:40.096Z,77.08
2022-11-27T05:10:08.511Z,77.12
2022-11-27T05:12:35.512Z,76.94
2022-11-27T05:15:04.667Z,77.05
2022-11-27T05:17:32.415Z,77.09
2022-11-27T05:19:59.291Z,76.97
2022-11-27T05:22:26.348Z,77.25
2022-11-27T05:24:53.417Z,77.21
2022-11-27T05:27:20.345Z,77.32
2022-11-27T05:29:47.266Z,77.03
2022-11-27T05:32:14.335Z,77.31
2022-11-27T05:34:41.435Z,77.35
2022-11-27T05:37:08.550Z,77.15
2022-11-27T05:39:35.572Z,77.48
2022-11-27T05:42:02.545Z,77.78
2022-11-27T05:44:29.902Z,77.45
2022-11-27T05:46:57.003Z,77.67
2022-11-27T05:49:24.050Z,77.63
2022-11-27T05:51:51.892Z,77.51
2022-11-27T05:54:19.150Z,77.58
2022-11-27T05:56:46.364Z,77.45
2022-11-27T05:59:13.981Z,77.43
2022-11-27T06:01:41.132Z,77.28
2022-11-27T06:04:08.079Z,77.49
2022-11-27T06:06:35.005Z,77.38
2022-11-27T06:09:02.140Z,77.49
2022-11-27T06:11:29.042Z,77.04
2022-11-27T06:13:55.917Z,77.20
2022-11-27T06:16:24.007Z,77.31
2022-11-27T06:18:55.470Z,77.18
2022-11-27T06:21:24.148Z,77.09
2022-11-27T06:23:55.903Z,77.16
2022-11-27T06:26:28.316Z,77.10
2022-11-27T06:28:56.738Z,77.04
2022-11-27T06:31:26.820Z,77.03
2022-11-27T06:33:55.082Z,77.13
2022-11-27T06:36:24.848Z,76.99
2022-11-27T06:38:51.796Z,76.87
2022-11-27T06:41:21.092Z,76.81
2022-11-27T06:43:48.003Z,76.93
2022-11-27T06:46:18.406Z,77.01
2022-11-27T06:48:47.401Z,76.78
2022-11-27T06:51:16.977Z,76.88
2022-11-27T06:53:44.522Z,76.78
2022-11-27T06:56:16.870Z,76.77
2022-11-27T06:58:44.941Z,76.87
2022-11-27T07:01:15.371Z,76.77
2022-11-27T07:03:43.223Z,76.90
2022-11-27T07:06:14.671Z,76.83
2022-11-27T07:08:42.322Z,76.96
2022-11-27T07:11:18.507Z,77.00
2022-11-27T07:13:47.382Z,76.98
2022-11-27T07:16:15.102Z,76.81
2022-11-27T07:18:48.525Z,77.08
2022-11-27T07:21:16.081Z,77.00
2022-11-27T07:23:43.124Z,77.26
2022-11-27T07:26:15.978Z,77.22
2022-11-27T07:28:43.780Z,77.01
2022-11-27T07:31:16.692Z,77.04
2022-11-27T07:33:43.901Z,77.04
2022-11-27T07:36:13.315Z,76.96
2022-11-27T07:38:40.852Z,77.14
2022-11-27T07:41:08.372Z,77.24
2022-11-27T07:43:36.107Z,77.22
2022-11-27T07:46:18.661Z,77.34
2022-11-27T07:48:46.003Z,77.37
2022-11-27T07:51:15.587Z,77.42
2022-11-27T07:53:43.169Z,77.32
2022-11-27T07:56:12.646Z,77.31
2022-11-27T07:58:40.128Z,77.29
2022-11-27T08:01:09.620Z,77.37
2022-11-27T08:03:37.413Z,77.58
2022-11-27T08:06:05.169Z,77.57
2022-11-27T08:08:32.673Z,77.68
2022-11-27T08:10:59.639Z,77.78
2022-11-27T08:13:26.639Z,77.70
2022-11-27T08:15:53.825Z,77.89
2022-11-27T08:18:20.723Z,77.75
2022-11-27T08:20:47.679Z,77.69
2022-11-27T08:23:14.621Z,77.71
2022-11-27T08:25:41.519Z,77.76
2022-11-27T08:28:08.563Z,77.63
2022-11-27T08:30:35.478Z,77.50
2022-11-27T08:33:02.371Z,77.54
2022-11-27T08:35:29.315Z,77.59
2022-11-27T08:37:56.664Z,77.54
2022-11-27T08:40:23.573Z,77.41
2022-11-27T08:42:50.495Z,77.54
2022-11-27T08:45:18.603Z,77.56
2022-11-27T08:47:45.469Z,77.71
2022-11-27T08:50:12.520Z,77.75
2022-11-27T08:52:39.598Z,77.89
2022-11-27T08:55:07.255Z,77.73
2022-11-27T08:57:34.197Z,77.97
2022-11-27T09:00:01.221Z,77.82
2022-11-27T09:02:28.216Z,78.10
2022-11-27T09:04:55.336Z,77.79
2022-11-27T09:07:22.523Z,77.73
2022-11-27T09:09:49.692Z,77.80
2022-11-27T09:12:16.732Z,77.89
2022-11-27T09:14:43.735Z,77.93
2022-11-27T09:17:10.820Z,77.92
2022-11-27T09:19:37.830Z,77.98
2022-11-27T09:22:04.822Z,78.12
2022-11-27T09:24:31.725Z,78.06
2022-11-27T09:26:58.667Z,77.86
2022-11-27T09:29:25.577Z,77.99
2022-11-27T09:31:52.663Z,77.98
2022-11-27T09:34:19.846Z,77.91
2022-11-27T09:36:47.000Z,77.63
2022-11-27T09:39:15.508Z,77.70
2022-11-27T09:41:54.915Z,77.84
2022-11-27T09:44:39.858Z,77.84
2022-11-27T09:47:21.032Z,77.84
2022-11-27T09:49:58.128Z,77.87
2022-11-27T09:52:56.350Z,77.66
2022-11-27T09:55:35.377Z,77.64
2022-11-27T09:58:06.909Z,77.43
2022-11-27T10:00:33.995Z,77.55
2022-11-27T10:03:01.099Z,77.34
2022-11-27T10:05:38.684Z,77.01
2022-11-27T10:08:16.182Z,77.21
2022-11-27T10:11:01.731Z,77.49
2022-11-27T10:14:00.606Z,77.53
2022-11-27T10:16:44.691Z,77.61
2022-11-27T10:19:27.065Z,77.63
2022-11-27T10:22:11.263Z,77.61
2022-11-27T10:24:42.986Z,77.89
2022-11-27T10:27:22.084Z,77.65
2022-11-27T10:29:57.284Z,77.68
2022-11-27T10:32:55.125Z,77.98
2022-11-27T10:35:24.348Z,77.86
2022-11-27T10:38:00.981Z,77.87
2022-11-27T10:40:40.140Z,78.01
2022-11-27T10:43:15.480Z,77.91
2022-11-27T10:45:49.226Z,77.93
2022-11-27T10:48:16.911Z,77.87
2022-11-27T10:50:45.575Z,77.71
2022-11-27T10:53:29.993Z,77.63
2022-11-27T10:56:06.348Z,77.73
2022-11-27T10:58:33.187Z,77.85
2022-11-27T11:01:06.439Z,78.01
2022-11-27T11:03:34.285Z,77.84
2022-11-27T11:06:20.466Z,77.67
2022-11-27T11:08:49.202Z,77.57
2022-11-27T11:11:26.014Z,77.49
2022-11-27T11:13:54.501Z,77.79
2022-11-27T11:16:25.010Z,77.55
2022-11-27T11:18:55.051Z,77.61
2022-11-27T11:21:38.530Z,77.72
2022-11-27T11:24:26.838Z,77.76
2022-11-27T11:26:58.613Z,77.85
2022-11-27T11:29:49.035Z,77.96
2022-11-27T11:32:22.123Z,77.95
2022-11-27T11:35:00.664Z,77.93
2022-11-27T11:37:31.183Z,77.82
2022-11-27T11:40:11.983Z,77.77
2022-11-27T11:43:20.549Z,77.51
2022-11-27T11:45:48.371Z,77.47
2022-11-27T11:48:21.377Z,77.47
2022-11-27T11:50:54.009Z,77.60
2022-11-27T11:53:44.126Z,77.54
2022-11-27T11:56:29.460Z,77.67
2022-11-27T11:58:58.486Z,77.59
2022-11-27T12:01:56.836Z,77.55
2022-11-27T12:04:30.113Z,77.51
2022-11-27T12:07:22.773Z,77.41
2022-11-27T12:10:01.591Z,77.56
2022-11-27T12:12:49.932Z,77.56
2022-11-27T12:15:16.875Z,77.74
2022-11-27T12:18:28.567Z,77.62
2022-11-27T12:21:17.862Z,77.36
2022-11-27T12:23:55.922Z,77.25
2022-11-27T12:26:39.848Z,77.49
2022-11-27T12:29:43.676Z,77.55
2022-11-27T12:32:25.596Z,77.54
2022-11-27T12:35:18.815Z,77.38
2022-11-27T12:38:00.235Z,77.40
2022-11-27T12:41:01.949Z,77.49
2022-11-27T12:43:44.083Z,77.39
2022-11-27T12:46:40.030Z,77.33
2022-11-27T12:49:22.741Z,77.33
2022-11-27T12:52:04.568Z,77.40
2022-11-27T12:54:48.262Z,77.33
2022-11-27T12:57:27.100Z,77.48
2022-11-27T12:59:58.809Z,77.39
2022-11-27T13:02:28.890Z,77.36
2022-11-27T13:05:01.653Z,77.30
2022-11-27T13:07:40.109Z,77.46
2022-11-27T13:10:22.166Z,77.38
2022-11-27T13:13:07.813Z,77.37
2022-11-27T13:15:42.457Z,77.11
2022-11-27T13:18:39.702Z,77.40
2022-11-27T13:21:18.078Z,77.38
2022-11-27T13:23:45.479Z,77.22
2022-11-27T13:26:23.349Z,77.23
2022-11-27T13:28:58.301Z,77.17
2022-11-27T13:31:29.264Z,77.13
2022-11-27T13:34:04.143Z,77.37
2022-11-27T13:36:39.313Z,77.25
2022-11-27T13:39:06.954Z,77.29
2022-11-27T13:41:39.611Z,77.26
2022-11-27T13:44:44.002Z,77.28
2022-11-27T13:47:16.573Z,77.35
2022-11-27T13:49:44.847Z,77.25
2022-11-27T13:52:20.645Z,77.13
2022-11-27T13:54:54.963Z,77.11
2022-11-27T13:57:23.404Z,77.01
2022-11-27T14:00:16.351Z,76.90
2022-11-27T14:03:39.402Z,77.00
2022-11-27T14:21:52.539Z,77.20
2022-11-27T14:24:52.789Z,77.04
2022-11-27T14:27:49.667Z,77.22
2022-11-27T14:30:32.809Z,77.13
2022-11-27T14:42:01.597Z,77.26
2022-11-27T14:44:37.869Z,77.29
2022-11-27T14:47:27.190Z,77.15
2022-11-27T14:50:07.107Z,77.18
2022-11-27T14:52:49.780Z,77.08
2022-11-27T14:55:49.015Z,77.29
2022-11-27T14:59:22.152Z,77.29
2022-11-27T15:02:11.826Z,77.29
2022-11-27T15:04:41.802Z,77.23
2022-11-27T15:07:59.572Z,77.26
2022-11-27T15:10:39.177Z,77.24
2022-11-27T15:13:20.964Z,77.43
2022-11-27T15:16:06.618Z,77.44
2022-11-27T15:18:37.018Z,77.36
2022-11-27T15:22:03.858Z,77.48
2022-11-27T15:24:34.598Z,77.23
2022-11-27T15:27:31.782Z,77.35
2022-11-27T15:30:12.658Z,77.38
2022-11-27T15:32:56.962Z,77.49
2022-11-27T15:35:35.696Z,77.50
2022-11-27T15:38:10.652Z,77.48
2022-11-27T15:40:40.646Z,77.45
2022-11-27T15:43:15.084Z,77.54
2022-11-27T15:45:55.132Z,77.59
2022-11-27T15:48:25.949Z,77.59
2022-11-27T15:50:53.642Z,77.47
2022-11-27T15:53:29.294Z,77.66
2022-11-27T15:55:58.198Z,77.52
2022-11-27T15:58:36.139Z,77.59
2022-11-27T16:01:23.935Z,77.58
2022-11-27T16:04:05.259Z,77.62
2022-11-27T16:06:42.835Z,77.68
2022-11-27T16:09:10.814Z,77.62
2022-11-27T16:11:46.492Z,77.72
2022-11-27T16:14:23.535Z,77.64
2022-11-27T16:17:00.916Z,77.86
2022-11-27T16:20:26.958Z,78.09
2022-11-27T16:23:34.280Z,77.83
2022-11-27T16:26:47.095Z,77.95
2022-11-27T16:29:21.871Z,77.93
2022-11-27T16:32:01.830Z,77.97
2022-11-27T16:34:45.957Z,78.11
2022-11-27T16:37:18.113Z,77.99
2022-11-27T16:39:49.185Z,77.95
2022-11-27T16:42:16.425Z,77.92
2022-11-27T16:44:44.296Z,77.91
2022-11-27T16:47:12.164Z,77.99
2022-11-27T16:49:39.311Z,77.99
2022-11-27T16:52:06.607Z,78.03
2022-11-27T16:54:33.896Z,78.04
2022-11-27T16:57:01.228Z,77.94
2022-11-27T16:59:28.567Z,77.97
2022-11-27T17:01:56.108Z,77.92
2022-11-27T17:04:25.359Z,77.83
2022-11-27T17:06:52.456Z,78.03
2022-11-27T17:09:28.794Z,77.95
2022-11-27T17:11:56.014Z,78.18
2022-11-27T17:14:23.572Z,78.06
2022-11-27T17:16:52.148Z,78.07
2022-11-27T17:19:30.973Z,78.15
2022-11-27T17:21:58.285Z,78.05
2022-11-27T17:24:25.790Z,78.18
2022-11-27T17:26:54.895Z,77.86
2022-11-27T17:29:22.774Z,78.08
2022-11-27T17:31:50.442Z,77.94
2022-11-27T17:34:20.551Z,77.99
2022-11-27T17:36:53.042Z,77.90
2022-11-27T17:39:20.468Z,77.85
2022-11-27T17:41:51.484Z,77.79
2022-11-27T17:44:27.667Z,77.99
2022-11-27T17:46:57.813Z,77.95
2022-11-27T17:49:25.484Z,77.91
2022-11-27T17:52:13.305Z,77.90
2022-11-27T17:54:44.000Z,77.86
2022-11-27T17:57:11.401Z,78.00
2022-11-27T17:59:40.894Z,77.81
2022-11-27T18:02:11.144Z,77.93
2022-11-27T18:04:38.341Z,78.02
2022-11-27T18:07:05.369Z,77.77
2022-11-27T18:09:32.426Z,77.85
2022-11-27T18:11:59.410Z,77.70
2022-11-27T18:14:26.453Z,77.76
2022-11-27T18:16:53.731Z,77.97
2022-11-27T18:22:41.033Z,77.73
2022-11-27T18:25:08.330Z,77.81
2022-11-27T18:27:35.465Z,77.85
2022-11-27T18:33:07.619Z,77.78
2022-11-27T18:35:42.059Z,77.93
2022-11-27T18:38:20.713Z,77.80
2022-11-27T18:41:04.984Z,77.73
2022-11-27T18:43:38.227Z,77.75
2022-11-27T18:46:06.759Z,77.82
2022-11-27T18:48:36.950Z,77.83
2022-11-27T18:51:16.119Z,77.95
2022-11-27T18:53:44.522Z,77.89
2022-11-27T18:56:20.363Z,77.78
2022-11-27T18:58:48.692Z,77.80
2022-11-27T19:01:21.350Z,77.81
2022-11-27T19:03:49.508Z,77.72
2022-11-27T19:06:18.844Z,77.99
2022-11-27T19:08:53.510Z,77.80
2022-11-27T19:11:36.924Z,77.87
2022-11-27T19:14:06.095Z,77.98
2022-11-27T19:16:50.681Z,77.76
2022-11-27T19:22:16.771Z,77.90
2022-11-27T19:24:48.560Z,78.00
2022-11-27T19:27:15.971Z,77.93
2022-11-27T19:29:43.651Z,78.00
2022-11-27T19:32:10.935Z,77.93
2022-11-27T19:34:38.069Z,78.07
2022-11-27T19:37:05.339Z,77.95
2022-11-27T19:39:32.866Z,78.02
2022-11-27T19:42:00.013Z,77.99
2022-11-27T19:44:27.187Z,78.06
2022-11-27T19:46:54.379Z,77.95
2022-11-27T19:49:21.496Z,77.97
2022-11-27T19:52:01.670Z,77.91
2022-11-27T19:55:11.912Z,78.02
2022-11-27T20:01:29.824Z,77.89
2022-11-27T20:04:32.953Z,78.09
2022-11-27T20:07:56.325Z,78.00
2022-11-27T20:11:04.040Z,77.93
2022-11-27T20:13:40.613Z,77.91
2022-11-27T20:16:13.561Z,77.98
2022-11-27T20:18:46.880Z,77.71
2022-11-27T20:21:19.741Z,77.82
2022-11-27T20:23:48.773Z,77.93
2022-11-27T20:26:21.848Z,78.09
2022-11-27T20:28:49.885Z,77.86
2022-11-27T20:31:24.609Z,77.93
2022-11-27T20:33:52.996Z,77.93
2022-11-27T20:36:22.656Z,77.92
2022-11-27T20:38:53.326Z,77.86
2022-11-27T20:41:21.505Z,77.92
2022-11-27T20:43:52.851Z,77.81
2022-11-27T20:46:20.444Z,78.00
2022-11-27T20:48:49.192Z,78.11
2022-11-27T20:51:20.543Z,77.81
2022-11-27T20:53:49.075Z,77.89
2022-11-27T20:56:18.176Z,77.92
2022-11-27T20:58:46.758Z,77.98
2022-11-27T21:01:16.431Z,77.91
2022-11-27T21:03:44.556Z,77.88
2022-11-27T21:06:12.711Z,77.83
2022-11-27T21:08:42.309Z,77.69
2022-11-27T21:11:15.694Z,77.89
2022-11-27T21:13:42.714Z,77.82
2022-11-27T21:16:11.764Z,77.75
2022-11-27T21:18:39.410Z,77.90
2022-11-27T21:21:12.713Z,77.95
2022-11-27T21:23:41.934Z,77.80
2022-11-27T21:26:10.465Z,77.83
2022-11-27T21:28:38.296Z,77.74
2022-11-27T21:31:16.771Z,77.73
2022-11-27T21:33:48.896Z,77.72
2022-11-27T21:36:17.494Z,77.90
2022-11-27T21:38:44.694Z,77.87
2022-11-27T21:41:13.295Z,77.71
2022-11-27T21:43:41.133Z,77.94
2022-11-27T21:46:18.373Z,78.09
2022-11-27T21:48:51.460Z,77.86
2022-11-27T21:51:20.699Z,77.86
2022-11-27T21:53:50.392Z,77.84
2022-11-27T21:56:20.361Z,77.89
2022-11-27T21:58:47.191Z,77.78
2022-11-27T22:01:16.573Z,77.72
2022-11-27T22:03:46.420Z,77.70
2022-11-27T22:06:15.682Z,77.74
2022-11-27T22:08:44.025Z,77.95
2022-11-27T22:11:14.291Z,77.81
2022-11-27T22:13:41.537Z,77.93
2022-11-27T22:16:14.932Z,77.77
2022-11-27T22:18:42.517Z,77.75
2022-11-27T22:21:11.669Z,77.85
2022-11-27T22:23:39.875Z,77.79
2022-11-27T22:26:09.795Z,77.73
2022-11-27T22:28:37.413Z,77.88
2022-11-27T22:31:12.198Z,77.86
2022-11-27T22:33:40.763Z,77.69
2022-11-27T22:36:15.489Z,77.77
2022-11-27T22:38:43.969Z,77.67
2022-11-27T22:41:11.537Z,77.62
2022-11-27T22:43:39.191Z,77.70
2022-11-27T22:46:10.325Z,77.70
2022-11-27T22:48:37.887Z,77.60
2022-11-27T22:51:04.936Z,77.65
2022-11-27T22:53:32.011Z,77.71
2022-11-27T22:56:07.632Z,77.68
2022-11-27T22:58:39.820Z,77.64
2022-11-27T23:01:21.496Z,77.77
2022-11-27T23:03:49.337Z,77.63
2022-11-27T23:06:18.018Z,77.59
2022-11-27T23:08:45.563Z,77.70
2022-11-27T23:11:18.767Z,77.86
2022-11-27T23:13:49.671Z,77.80
2022-11-27T23:16:18.114Z,77.80
2022-11-27T23:18:45.891Z,77.75
2022-11-27T23:21:15.645Z,77.70
2022-11-27T23:23:43.434Z,77.64
2022-11-27T23:26:18.376Z,77.49
2022-11-27T23:28:46.338Z,77.73
2022-11-27T23:31:32.892Z,77.80
2022-11-27T23:34:01.734Z,77.96
2022-11-27T23:36:30.539Z,77.95
2022-11-27T23:39:03.462Z,78.07
2022-11-27T23:41:30.698Z,77.86
2022-11-27T23:43:58.145Z,78.19
2022-11-27T23:46:27.550Z,78.16
2022-11-27T23:48:56.248Z,77.92
2022-11-27T23:51:25.816Z,77.82
2022-11-27T23:53:53.766Z,78.10
2022-11-27T23:56:26.399Z,77.78
2022-11-27T23:58:54.755Z,78.06
